sensor_id;sensor_type;location;lat;lon;timestamp;P1;durP1;ratioP1;P2;durP2;ratioP2
13927;SDS011;7036;50.834;4.718;2023-05-10T00:00:26;2.58;;;1.60;;
13927;SDS011;7036;50.834;4.718;2023-05-10T00:02:54;2.35;;;1.70;;
13927;SDS011;7036;50.834;4.718;2023-05-10T00:05:21;2.83;;;1.70;;
13927;SDS011;7036;50.834;4.718;2023-05-10T00:07:49;3.05;;;1.80;;
13927;SDS011;7036;50.834;4.718;2023-05-10T00:10:17;2.53;;;1.55;;
13927;SDS011;7036;50.834;4.718;2023-05-10T00:12:44;2.92;;;1.60;;
13927;SDS011;7036;50.834;4.718;2023-05-10T00:15:12;2.05;;;1.75;;
13927;SDS011;7036;50.834;4.718;2023-05-10T00:17:40;2.42;;;1.80;;
13927;SDS011;7036;50.834;4.718;2023-05-10T00:20:08;3.13;;;1.52;;
13927;SDS011;7036;50.834;4.718;2023-05-10T00:22:36;2.03;;;1.80;;
13927;SDS011;7036;50.834;4.718;2023-05-10T00:25:03;2.73;;;1.50;;
13927;SDS011;7036;50.834;4.718;2023-05-10T00:27:30;2.42;;;1.60;;
13927;SDS011;7036;50.834;4.718;2023-05-10T00:29:58;5.72;;;1.70;;
13927;SDS011;7036;50.834;4.718;2023-05-10T00:32:26;2.55;;;1.70;;
13927;SDS011;7036;50.834;4.718;2023-05-10T00:34:53;3.30;;;1.87;;
13927;SDS011;7036;50.834;4.718;2023-05-10T00:37:20;5.40;;;1.83;;
13927;SDS011;7036;50.834;4.718;2023-05-10T00:39:47;2.35;;;1.65;;
13927;SDS011;7036;50.834;4.718;2023-05-10T00:42:16;2.42;;;1.80;;
13927;SDS011;7036;50.834;4.718;2023-05-10T00:44:43;1.87;;;1.50;;
13927;SDS011;7036;50.834;4.718;2023-05-10T00:47:10;2.75;;;1.83;;
13927;SDS011;7036;50.834;4.718;2023-05-10T00:49:38;1.67;;;1.48;;
13927;SDS011;7036;50.834;4.718;2023-05-10T00:52:06;1.90;;;1.70;;
13927;SDS011;7036;50.834;4.718;2023-05-10T00:54:34;1.95;;;1.70;;
13927;SDS011;7036;50.834;4.718;2023-05-10T00:57:02;2.00;;;1.80;;
13927;SDS011;7036;50.834;4.718;2023-05-10T00:59:29;2.08;;;1.80;;
13927;SDS011;7036;50.834;4.718;2023-05-10T01:01:57;4.05;;;1.83;;
13927;SDS011;7036;50.834;4.718;2023-05-10T01:04:25;2.50;;;1.80;;
13927;SDS011;7036;50.834;4.718;2023-05-10T01:06:52;3.10;;;1.80;;
13927;SDS011;7036;50.834;4.718;2023-05-10T01:09:21;3.22;;;1.73;;
13927;SDS011;7036;50.834;4.718;2023-05-10T01:11:47;1.48;;;1.38;;
13927;SDS011;7036;50.834;4.718;2023-05-10T01:14:15;2.25;;;1.60;;
13927;SDS011;7036;50.834;4.718;2023-05-10T01:16:42;2.22;;;1.80;;
13927;SDS011;7036;50.834;4.718;2023-05-10T01:19:12;3.78;;;1.83;;
13927;SDS011;7036;50.834;4.718;2023-05-10T01:21:43;2.33;;;1.40;;
13927;SDS011;7036;50.834;4.718;2023-05-10T01:37:39;2.03;;;1.83;;
13927;SDS011;7036;50.834;4.718;2023-05-10T01:40:13;3.57;;;2.03;;
13927;SDS011;7036;50.834;4.718;2023-05-10T01:42:45;2.37;;;1.87;;
13927;SDS011;7036;50.834;4.718;2023-05-10T01:45:19;2.20;;;2.00;;
13927;SDS011;7036;50.834;4.718;2023-05-10T01:48:06;3.47;;;1.80;;
13927;SDS011;7036;50.834;4.718;2023-05-10T01:50:32;2.33;;;1.93;;
13927;SDS011;7036;50.834;4.718;2023-05-10T01:53:00;2.95;;;1.90;;
13927;SDS011;7036;50.834;4.718;2023-05-10T01:55:29;3.97;;;1.75;;
13927;SDS011;7036;50.834;4.718;2023-05-10T01:58:02;1.90;;;1.40;;
13927;SDS011;7036;50.834;4.718;2023-05-10T02:00:29;1.87;;;1.77;;
13927;SDS011;7036;50.834;4.718;2023-05-10T02:02:56;2.07;;;1.87;;
13927;SDS011;7036;50.834;4.718;2023-05-10T02:05:25;2.33;;;1.90;;
13927;SDS011;7036;50.834;4.718;2023-05-10T02:07:53;1.57;;;1.47;;
13927;SDS011;7036;50.834;4.718;2023-05-10T02:10:21;2.73;;;1.83;;
13927;SDS011;7036;50.834;4.718;2023-05-10T02:12:48;1.93;;;1.70;;
13927;SDS011;7036;50.834;4.718;2023-05-10T02:15:18;2.58;;;2.00;;
13927;SDS011;7036;50.834;4.718;2023-05-10T02:17:44;2.97;;;2.22;;
13927;SDS011;7036;50.834;4.718;2023-05-10T02:20:13;4.65;;;2.33;;
13927;SDS011;7036;50.834;4.718;2023-05-10T02:22:40;4.00;;;1.80;;
13927;SDS011;7036;50.834;4.718;2023-05-10T02:25:07;2.53;;;1.38;;
13927;SDS011;7036;50.834;4.718;2023-05-10T02:27:34;2.47;;;2.08;;
13927;SDS011;7036;50.834;4.718;2023-05-10T02:30:02;2.50;;;1.80;;
13927;SDS011;7036;50.834;4.718;2023-05-10T02:32:29;2.38;;;2.10;;
13927;SDS011;7036;50.834;4.718;2023-05-10T02:34:57;4.00;;;2.10;;
13927;SDS011;7036;50.834;4.718;2023-05-10T02:37:25;2.60;;;2.05;;
13927;SDS011;7036;50.834;4.718;2023-05-10T02:39:54;2.03;;;1.92;;
13927;SDS011;7036;50.834;4.718;2023-05-10T02:42:26;2.50;;;2.30;;
13927;SDS011;7036;50.834;4.718;2023-05-10T02:44:56;3.00;;;1.83;;
13927;SDS011;7036;50.834;4.718;2023-05-10T02:47:22;8.52;;;2.20;;
13927;SDS011;7036;50.834;4.718;2023-05-10T02:49:49;3.03;;;1.85;;
13927;SDS011;7036;50.834;4.718;2023-05-10T02:52:19;2.45;;;2.03;;
13927;SDS011;7036;50.834;4.718;2023-05-10T02:54:45;2.28;;;1.92;;
13927;SDS011;7036;50.834;4.718;2023-05-10T02:57:15;2.92;;;2.00;;
13927;SDS011;7036;50.834;4.718;2023-05-10T02:59:41;3.35;;;1.92;;
13927;SDS011;7036;50.834;4.718;2023-05-10T03:02:09;2.50;;;2.00;;
13927;SDS011;7036;50.834;4.718;2023-05-10T03:04:36;3.13;;;1.70;;
13927;SDS011;7036;50.834;4.718;2023-05-10T03:07:04;2.65;;;1.75;;
13927;SDS011;7036;50.834;4.718;2023-05-10T03:09:32;2.10;;;1.83;;
13927;SDS011;7036;50.834;4.718;2023-05-10T03:12:03;2.42;;;1.75;;
13927;SDS011;7036;50.834;4.718;2023-05-10T03:14:49;2.30;;;2.10;;
13927;SDS011;7036;50.834;4.718;2023-05-10T03:17:20;2.23;;;1.97;;
13927;SDS011;7036;50.834;4.718;2023-05-10T03:19:54;2.73;;;2.20;;
13927;SDS011;7036;50.834;4.718;2023-05-10T03:22:29;1.90;;;1.80;;
13927;SDS011;7036;50.834;4.718;2023-05-10T03:24:59;2.50;;;2.10;;
13927;SDS011;7036;50.834;4.718;2023-05-10T03:27:26;2.47;;;2.00;;
13927;SDS011;7036;50.834;4.718;2023-05-10T03:29:53;10.95;;;2.50;;
13927;SDS011;7036;50.834;4.718;2023-05-10T03:32:20;2.72;;;2.22;;
13927;SDS011;7036;50.834;4.718;2023-05-10T03:34:48;2.15;;;2.00;;
13927;SDS011;7036;50.834;4.718;2023-05-10T03:37:15;3.47;;;2.47;;
13927;SDS011;7036;50.834;4.718;2023-05-10T03:39:43;2.85;;;2.13;;
13927;SDS011;7036;50.834;4.718;2023-05-10T03:42:11;2.40;;;2.20;;
13927;SDS011;7036;50.834;4.718;2023-05-10T03:44:39;4.00;;;2.63;;
13927;SDS011;7036;50.834;4.718;2023-05-10T03:47:06;2.53;;;2.30;;
13927;SDS011;7036;50.834;4.718;2023-05-10T03:49:34;2.63;;;2.22;;
13927;SDS011;7036;50.834;4.718;2023-05-10T03:52:01;2.92;;;2.35;;
13927;SDS011;7036;50.834;4.718;2023-05-10T03:54:28;2.78;;;2.58;;
13927;SDS011;7036;50.834;4.718;2023-05-10T03:56:56;2.40;;;2.20;;
13927;SDS011;7036;50.834;4.718;2023-05-10T03:59:23;3.00;;;2.65;;
13927;SDS011;7036;50.834;4.718;2023-05-10T04:01:51;2.60;;;2.40;;
13927;SDS011;7036;50.834;4.718;2023-05-10T04:04:18;3.47;;;2.67;;
13927;SDS011;7036;50.834;4.718;2023-05-10T04:06:46;2.60;;;2.40;;
13927;SDS011;7036;50.834;4.718;2023-05-10T04:09:13;3.05;;;2.60;;
13927;SDS011;7036;50.834;4.718;2023-05-10T04:11:41;2.90;;;2.47;;
13927;SDS011;7036;50.834;4.718;2023-05-10T04:14:09;2.47;;;2.20;;
13927;SDS011;7036;50.834;4.718;2023-05-10T04:16:37;2.80;;;2.50;;
13927;SDS011;7036;50.834;4.718;2023-05-10T04:19:05;2.85;;;2.63;;
13927;SDS011;7036;50.834;4.718;2023-05-10T04:21:33;3.97;;;2.65;;
13927;SDS011;7036;50.834;4.718;2023-05-10T04:24:01;2.58;;;2.30;;
13927;SDS011;7036;50.834;4.718;2023-05-10T04:26:29;2.40;;;2.20;;
13927;SDS011;7036;50.834;4.718;2023-05-10T04:28:57;4.25;;;2.53;;
13927;SDS011;7036;50.834;4.718;2023-05-10T04:31:25;3.40;;;2.40;;
13927;SDS011;7036;50.834;4.718;2023-05-10T04:33:53;7.75;;;2.80;;
13927;SDS011;7036;50.834;4.718;2023-05-10T04:36:20;3.65;;;2.22;;
13927;SDS011;7036;50.834;4.718;2023-05-10T04:38:48;4.10;;;2.72;;
13927;SDS011;7036;50.834;4.718;2023-05-10T04:41:16;3.67;;;2.90;;
13927;SDS011;7036;50.834;4.718;2023-05-10T04:43:44;4.68;;;3.03;;
13927;SDS011;7036;50.834;4.718;2023-05-10T04:46:11;7.07;;;2.85;;
13927;SDS011;7036;50.834;4.718;2023-05-10T04:48:38;10.45;;;3.33;;
13927;SDS011;7036;50.834;4.718;2023-05-10T04:51:05;7.68;;;3.10;;
13927;SDS011;7036;50.834;4.718;2023-05-10T04:53:33;3.83;;;2.60;;
13927;SDS011;7036;50.834;4.718;2023-05-10T04:56:01;3.83;;;2.95;;
13927;SDS011;7036;50.834;4.718;2023-05-10T04:58:29;4.35;;;2.92;;
13927;SDS011;7036;50.834;4.718;2023-05-10T05:00:57;3.70;;;2.83;;
13927;SDS011;7036;50.834;4.718;2023-05-10T05:03:25;5.75;;;2.35;;
13927;SDS011;7036;50.834;4.718;2023-05-10T05:05:54;5.00;;;3.35;;
13927;SDS011;7036;50.834;4.718;2023-05-10T05:08:20;4.03;;;3.00;;
13927;SDS011;7036;50.834;4.718;2023-05-10T05:10:48;3.33;;;3.03;;
13927;SDS011;7036;50.834;4.718;2023-05-10T05:13:16;4.32;;;2.95;;
13927;SDS011;7036;50.834;4.718;2023-05-10T05:15:43;4.15;;;3.10;;
13927;SDS011;7036;50.834;4.718;2023-05-10T05:18:10;3.47;;;2.97;;
13927;SDS011;7036;50.834;4.718;2023-05-10T05:20:38;3.38;;;3.08;;
13927;SDS011;7036;50.834;4.718;2023-05-10T05:23:06;4.28;;;2.83;;
13927;SDS011;7036;50.834;4.718;2023-05-10T05:25:34;6.35;;;3.28;;
13927;SDS011;7036;50.834;4.718;2023-05-10T05:28:03;3.92;;;2.38;;
13927;SDS011;7036;50.834;4.718;2023-05-10T05:30:30;3.17;;;2.57;;
13927;SDS011;7036;50.834;4.718;2023-05-10T05:32:58;3.53;;;2.75;;
13927;SDS011;7036;50.834;4.718;2023-05-10T05:35:25;4.65;;;3.47;;
13927;SDS011;7036;50.834;4.718;2023-05-10T05:37:53;4.55;;;3.15;;
13927;SDS011;7036;50.834;4.718;2023-05-10T05:40:22;4.35;;;2.90;;
13927;SDS011;7036;50.834;4.718;2023-05-10T05:42:49;6.33;;;3.30;;
13927;SDS011;7036;50.834;4.718;2023-05-10T05:45:17;7.32;;;3.22;;
13927;SDS011;7036;50.834;4.718;2023-05-10T05:47:45;4.35;;;3.25;;
13927;SDS011;7036;50.834;4.718;2023-05-10T05:50:12;4.78;;;3.05;;
13927;SDS011;7036;50.834;4.718;2023-05-10T05:52:39;13.70;;;3.97;;
13927;SDS011;7036;50.834;4.718;2023-05-10T05:55:08;11.20;;;4.18;;
13927;SDS011;7036;50.834;4.718;2023-05-10T05:57:35;21.87;;;5.40;;
13927;SDS011;7036;50.834;4.718;2023-05-10T06:00:02;9.17;;;4.50;;
13927;SDS011;7036;50.834;4.718;2023-05-10T06:02:29;6.82;;;4.20;;
13927;SDS011;7036;50.834;4.718;2023-05-10T06:04:56;11.00;;;4.38;;
13927;SDS011;7036;50.834;4.718;2023-05-10T06:07:24;8.75;;;4.15;;
13927;SDS011;7036;50.834;4.718;2023-05-10T06:09:51;8.65;;;4.40;;
13927;SDS011;7036;50.834;4.718;2023-05-10T06:12:18;8.73;;;4.80;;
13927;SDS011;7036;50.834;4.718;2023-05-10T06:14:46;8.00;;;4.20;;
13927;SDS011;7036;50.834;4.718;2023-05-10T06:17:14;6.90;;;4.47;;
13927;SDS011;7036;50.834;4.718;2023-05-10T06:19:42;8.45;;;4.20;;
13927;SDS011;7036;50.834;4.718;2023-05-10T06:22:10;7.57;;;5.03;;
13927;SDS011;7036;50.834;4.718;2023-05-10T06:24:38;6.32;;;4.60;;
13927;SDS011;7036;50.834;4.718;2023-05-10T06:27:06;9.18;;;5.32;;
13927;SDS011;7036;50.834;4.718;2023-05-10T06:29:34;14.93;;;5.88;;
13927;SDS011;7036;50.834;4.718;2023-05-10T06:32:01;12.10;;;5.25;;
13927;SDS011;7036;50.834;4.718;2023-05-10T06:34:28;9.30;;;5.35;;
13927;SDS011;7036;50.834;4.718;2023-05-10T06:36:56;10.52;;;5.28;;
13927;SDS011;7036;50.834;4.718;2023-05-10T06:39:23;9.73;;;5.07;;
13927;SDS011;7036;50.834;4.718;2023-05-10T06:41:50;12.85;;;5.18;;
13927;SDS011;7036;50.834;4.718;2023-05-10T06:44:17;11.75;;;5.03;;
13927;SDS011;7036;50.834;4.718;2023-05-10T06:46:45;7.68;;;4.78;;
13927;SDS011;7036;50.834;4.718;2023-05-10T06:49:12;10.82;;;4.88;;
13927;SDS011;7036;50.834;4.718;2023-05-10T06:51:40;14.05;;;4.97;;
13927;SDS011;7036;50.834;4.718;2023-05-10T06:54:08;13.85;;;4.90;;
13927;SDS011;7036;50.834;4.718;2023-05-10T06:56:36;8.65;;;4.75;;
13927;SDS011;7036;50.834;4.718;2023-05-10T06:59:03;13.82;;;4.25;;
13927;SDS011;7036;50.834;4.718;2023-05-10T07:01:31;11.80;;;4.68;;
13927;SDS011;7036;50.834;4.718;2023-05-10T07:03:58;7.70;;;3.93;;
13927;SDS011;7036;50.834;4.718;2023-05-10T07:06:26;19.73;;;4.85;;
13927;SDS011;7036;50.834;4.718;2023-05-10T07:08:53;7.95;;;3.85;;
13927;SDS011;7036;50.834;4.718;2023-05-10T07:11:20;9.52;;;4.07;;
13927;SDS011;7036;50.834;4.718;2023-05-10T07:13:47;12.75;;;3.88;;
13927;SDS011;7036;50.834;4.718;2023-05-10T07:16:15;16.60;;;4.20;;
13927;SDS011;7036;50.834;4.718;2023-05-10T07:18:42;7.00;;;3.40;;
13927;SDS011;7036;50.834;4.718;2023-05-10T07:21:11;6.03;;;3.28;;
13927;SDS011;7036;50.834;4.718;2023-05-10T07:23:38;7.33;;;3.10;;
13927;SDS011;7036;50.834;4.718;2023-05-10T07:26:05;7.57;;;3.13;;
13927;SDS011;7036;50.834;4.718;2023-05-10T07:28:34;7.85;;;3.42;;
13927;SDS011;7036;50.834;4.718;2023-05-10T07:31:01;3.87;;;2.67;;
13927;SDS011;7036;50.834;4.718;2023-05-10T07:33:30;5.38;;;2.78;;
13927;SDS011;7036;50.834;4.718;2023-05-10T07:35:57;2.97;;;2.27;;
13927;SDS011;7036;50.834;4.718;2023-05-10T07:38:24;5.47;;;2.53;;
13927;SDS011;7036;50.834;4.718;2023-05-10T07:40:52;7.20;;;2.80;;
13927;SDS011;7036;50.834;4.718;2023-05-10T07:43:20;6.75;;;2.60;;
13927;SDS011;7036;50.834;4.718;2023-05-10T07:45:48;8.73;;;3.15;;
13927;SDS011;7036;50.834;4.718;2023-05-10T07:48:15;15.35;;;3.35;;
13927;SDS011;7036;50.834;4.718;2023-05-10T07:50:43;9.13;;;2.90;;
13927;SDS011;7036;50.834;4.718;2023-05-10T07:53:10;10.57;;;2.80;;
13927;SDS011;7036;50.834;4.718;2023-05-10T07:55:37;6.68;;;2.83;;
13927;SDS011;7036;50.834;4.718;2023-05-10T07:58:04;8.30;;;2.90;;
13927;SDS011;7036;50.834;4.718;2023-05-10T08:00:32;5.60;;;3.10;;
13927;SDS011;7036;50.834;4.718;2023-05-10T08:03:01;5.68;;;2.70;;
13927;SDS011;7036;50.834;4.718;2023-05-10T08:05:27;11.00;;;3.13;;
13927;SDS011;7036;50.834;4.718;2023-05-10T08:07:55;6.25;;;2.80;;
13927;SDS011;7036;50.834;4.718;2023-05-10T08:10:23;16.05;;;3.65;;
13927;SDS011;7036;50.834;4.718;2023-05-10T08:12:50;9.63;;;3.65;;
13927;SDS011;7036;50.834;4.718;2023-05-10T08:15:17;13.90;;;4.07;;
13927;SDS011;7036;50.834;4.718;2023-05-10T08:17:44;14.15;;;3.65;;
13927;SDS011;7036;50.834;4.718;2023-05-10T08:20:12;16.00;;;4.38;;
13927;SDS011;7036;50.834;4.718;2023-05-10T08:22:40;14.07;;;4.30;;
13927;SDS011;7036;50.834;4.718;2023-05-10T08:25:07;20.20;;;4.25;;
13927;SDS011;7036;50.834;4.718;2023-05-10T08:27:34;14.65;;;4.60;;
13927;SDS011;7036;50.834;4.718;2023-05-10T08:30:02;17.13;;;3.78;;
13927;SDS011;7036;50.834;4.718;2023-05-10T08:32:29;23.52;;;4.53;;
13927;SDS011;7036;50.834;4.718;2023-05-10T08:34:57;20.30;;;4.10;;
13927;SDS011;7036;50.834;4.718;2023-05-10T08:37:24;12.85;;;4.03;;
13927;SDS011;7036;50.834;4.718;2023-05-10T08:39:52;9.30;;;3.85;;
13927;SDS011;7036;50.834;4.718;2023-05-10T08:42:19;12.32;;;3.72;;
13927;SDS011;7036;50.834;4.718;2023-05-10T08:44:47;11.63;;;3.83;;
13927;SDS011;7036;50.834;4.718;2023-05-10T08:47:15;13.23;;;3.67;;
13927;SDS011;7036;50.834;4.718;2023-05-10T08:49:41;11.63;;;3.35;;
13927;SDS011;7036;50.834;4.718;2023-05-10T08:52:08;12.05;;;3.72;;
13927;SDS011;7036;50.834;4.718;2023-05-10T08:54:35;12.27;;;3.72;;
13927;SDS011;7036;50.834;4.718;2023-05-10T08:57:04;8.77;;;3.08;;
13927;SDS011;7036;50.834;4.718;2023-05-10T08:59:31;11.23;;;3.70;;
13927;SDS011;7036;50.834;4.718;2023-05-10T09:01:58;13.95;;;3.65;;
13927;SDS011;7036;50.834;4.718;2023-05-10T09:04:26;9.93;;;3.60;;
13927;SDS011;7036;50.834;4.718;2023-05-10T09:06:54;5.13;;;2.95;;
13927;SDS011;7036;50.834;4.718;2023-05-10T09:09:22;8.77;;;3.95;;
13927;SDS011;7036;50.834;4.718;2023-05-10T09:11:49;6.97;;;3.13;;
13927;SDS011;7036;50.834;4.718;2023-05-10T09:14:17;11.02;;;3.53;;
13927;SDS011;7036;50.834;4.718;2023-05-10T09:16:45;16.23;;;3.20;;
13927;SDS011;7036;50.834;4.718;2023-05-10T09:19:12;9.77;;;3.28;;
13927;SDS011;7036;50.834;4.718;2023-05-10T09:21:39;11.32;;;3.38;;
13927;SDS011;7036;50.834;4.718;2023-05-10T09:24:07;8.93;;;3.55;;
13927;SDS011;7036;50.834;4.718;2023-05-10T09:26:34;7.22;;;3.78;;
13927;SDS011;7036;50.834;4.718;2023-05-10T09:29:01;7.28;;;2.85;;
13927;SDS011;7036;50.834;4.718;2023-05-10T09:31:44;6.70;;;2.80;;
13927;SDS011;7036;50.834;4.718;2023-05-10T09:34:17;11.00;;;3.13;;
13927;SDS011;7036;50.834;4.718;2023-05-10T09:36:52;9.43;;;3.30;;
13927;SDS011;7036;50.834;4.718;2023-05-10T09:39:21;11.07;;;4.07;;
13927;SDS011;7036;50.834;4.718;2023-05-10T09:41:48;8.00;;;2.88;;
13927;SDS011;7036;50.834;4.718;2023-05-10T09:44:18;5.43;;;2.72;;
13927;SDS011;7036;50.834;4.718;2023-05-10T09:46:48;7.57;;;2.83;;
13927;SDS011;7036;50.834;4.718;2023-05-10T09:49:14;11.18;;;3.13;;
13927;SDS011;7036;50.834;4.718;2023-05-10T09:51:39;7.32;;;2.60;;
13927;SDS011;7036;50.834;4.718;2023-05-10T09:56:40;5.30;;;3.03;;
13927;SDS011;7036;50.834;4.718;2023-05-10T09:59:10;15.83;;;3.00;;
13927;SDS011;7036;50.834;4.718;2023-05-10T10:01:37;9.17;;;2.80;;
13927;SDS011;7036;50.834;4.718;2023-05-10T10:04:07;9.13;;;2.78;;
13927;SDS011;7036;50.834;4.718;2023-05-10T10:06:40;10.63;;;2.93;;
13927;SDS011;7036;50.834;4.718;2023-05-10T10:09:07;16.03;;;3.60;;
13927;SDS011;7036;50.834;4.718;2023-05-10T10:11:36;8.90;;;3.30;;
13927;SDS011;7036;50.834;4.718;2023-05-10T10:14:01;11.10;;;3.40;;
13927;SDS011;7036;50.834;4.718;2023-05-10T10:16:29;24.98;;;4.00;;
13927;SDS011;7036;50.834;4.718;2023-05-10T10:18:57;11.25;;;3.30;;
13927;SDS011;7036;50.834;4.718;2023-05-10T10:21:24;7.95;;;3.45;;
13927;SDS011;7036;50.834;4.718;2023-05-10T10:23:51;10.35;;;2.80;;
13927;SDS011;7036;50.834;4.718;2023-05-10T10:26:18;16.50;;;3.30;;
13927;SDS011;7036;50.834;4.718;2023-05-10T10:28:57;10.38;;;3.00;;
13927;SDS011;7036;50.834;4.718;2023-05-10T10:31:26;6.90;;;2.67;;
13927;SDS011;7036;50.834;4.718;2023-05-10T10:34:01;10.10;;;3.00;;
13927;SDS011;7036;50.834;4.718;2023-05-10T10:36:26;14.00;;;3.00;;
13927;SDS011;7036;50.834;4.718;2023-05-10T10:41:49;12.15;;;3.22;;
13927;SDS011;7036;50.834;4.718;2023-05-10T10:49:25;6.37;;;2.67;;
13927;SDS011;7036;50.834;4.718;2023-05-10T10:57:27;14.37;;;2.77;;
13927;SDS011;7036;50.834;4.718;2023-05-10T11:02:54;6.83;;;2.20;;
13927;SDS011;7036;50.834;4.718;2023-05-10T11:05:36;5.63;;;2.70;;
13927;SDS011;7036;50.834;4.718;2023-05-10T11:08:27;6.90;;;2.23;;
13927;SDS011;7036;50.834;4.718;2023-05-10T11:10:34;7.20;;;2.17;;
13927;SDS011;7036;50.834;4.718;2023-05-10T11:13:02;7.88;;;2.40;;
13927;SDS011;7036;50.834;4.718;2023-05-10T11:15:33;7.32;;;2.15;;
13927;SDS011;7036;50.834;4.718;2023-05-10T11:20:46;8.70;;;2.83;;
13927;SDS011;7036;50.834;4.718;2023-05-10T11:23:12;14.55;;;3.08;;
13927;SDS011;7036;50.834;4.718;2023-05-10T11:25:45;8.97;;;2.57;;
13927;SDS011;7036;50.834;4.718;2023-05-10T11:28:13;14.93;;;3.07;;
13927;SDS011;7036;50.834;4.718;2023-05-10T11:30:38;8.27;;;2.58;;
13927;SDS011;7036;50.834;4.718;2023-05-10T11:33:06;10.57;;;2.58;;
13927;SDS011;7036;50.834;4.718;2023-05-10T11:35:39;17.95;;;3.55;;
13927;SDS011;7036;50.834;4.718;2023-05-10T11:38:11;11.97;;;2.87;;
13927;SDS011;7036;50.834;4.718;2023-05-10T11:40:36;10.90;;;2.90;;
13927;SDS011;7036;50.834;4.718;2023-05-10T11:43:03;15.32;;;3.55;;
13927;SDS011;7036;50.834;4.718;2023-05-10T11:45:34;16.88;;;3.55;;
13927;SDS011;7036;50.834;4.718;2023-05-10T11:48:00;17.10;;;3.03;;
13927;SDS011;7036;50.834;4.718;2023-05-10T11:50:28;15.52;;;2.88;;
13927;SDS011;7036;50.834;4.718;2023-05-10T11:52:55;10.82;;;2.85;;
13927;SDS011;7036;50.834;4.718;2023-05-10T11:55:22;10.77;;;2.70;;
13927;SDS011;7036;50.834;4.718;2023-05-10T11:57:53;11.90;;;2.85;;
13927;SDS011;7036;50.834;4.718;2023-05-10T12:00:21;8.07;;;2.63;;
13927;SDS011;7036;50.834;4.718;2023-05-10T12:02:49;11.85;;;2.05;;
13927;SDS011;7036;50.834;4.718;2023-05-10T12:05:17;8.98;;;2.00;;
13927;SDS011;7036;50.834;4.718;2023-05-10T12:07:44;11.48;;;2.30;;
13927;SDS011;7036;50.834;4.718;2023-05-10T12:10:12;8.18;;;2.33;;
13927;SDS011;7036;50.834;4.718;2023-05-10T12:12:42;12.23;;;2.67;;
13927;SDS011;7036;50.834;4.718;2023-05-10T12:15:17;8.02;;;2.70;;
13927;SDS011;7036;50.834;4.718;2023-05-10T12:17:45;6.30;;;2.10;;
13927;SDS011;7036;50.834;4.718;2023-05-10T12:20:16;9.45;;;1.85;;
13927;SDS011;7036;50.834;4.718;2023-05-10T12:22:50;10.83;;;2.20;;
13927;SDS011;7036;50.834;4.718;2023-05-10T12:25:16;6.80;;;2.40;;
13927;SDS011;7036;50.834;4.718;2023-05-10T12:27:52;9.18;;;2.25;;
13927;SDS011;7036;50.834;4.718;2023-05-10T12:30:21;6.50;;;2.23;;
13927;SDS011;7036;50.834;4.718;2023-05-10T12:32:45;7.20;;;2.47;;
13927;SDS011;7036;50.834;4.718;2023-05-10T12:35:12;8.18;;;2.08;;
13927;SDS011;7036;50.834;4.718;2023-05-10T12:37:41;4.78;;;1.90;;
13927;SDS011;7036;50.834;4.718;2023-05-10T12:40:09;5.70;;;1.80;;
13927;SDS011;7036;50.834;4.718;2023-05-10T12:42:36;12.00;;;2.30;;
13927;SDS011;7036;50.834;4.718;2023-05-10T12:45:03;12.70;;;2.10;;
13927;SDS011;7036;50.834;4.718;2023-05-10T12:47:31;5.55;;;1.90;;
13927;SDS011;7036;50.834;4.718;2023-05-10T12:49:59;9.95;;;2.20;;
13927;SDS011;7036;50.834;4.718;2023-05-10T12:52:27;6.65;;;2.35;;
13927;SDS011;7036;50.834;4.718;2023-05-10T12:54:55;5.57;;;1.75;;
13927;SDS011;7036;50.834;4.718;2023-05-10T12:57:22;3.88;;;2.00;;
13927;SDS011;7036;50.834;4.718;2023-05-10T12:59:50;4.85;;;1.48;;
13927;SDS011;7036;50.834;4.718;2023-05-10T13:02:17;8.52;;;2.03;;
13927;SDS011;7036;50.834;4.718;2023-05-10T13:04:45;2.90;;;1.63;;
13927;SDS011;7036;50.834;4.718;2023-05-10T13:07:13;6.75;;;2.30;;
13927;SDS011;7036;50.834;4.718;2023-05-10T13:09:41;4.35;;;1.40;;
13927;SDS011;7036;50.834;4.718;2023-05-10T13:12:09;4.50;;;1.60;;
13927;SDS011;7036;50.834;4.718;2023-05-10T13:14:37;5.53;;;1.38;;
13927;SDS011;7036;50.834;4.718;2023-05-10T13:17:04;5.03;;;1.52;;
13927;SDS011;7036;50.834;4.718;2023-05-10T13:19:32;9.25;;;1.98;;
13927;SDS011;7036;50.834;4.718;2023-05-10T13:22:00;5.68;;;1.58;;
13927;SDS011;7036;50.834;4.718;2023-05-10T13:24:30;4.38;;;1.20;;
13927;SDS011;7036;50.834;4.718;2023-05-10T13:26:56;7.43;;;1.67;;
13927;SDS011;7036;50.834;4.718;2023-05-10T13:29:23;7.18;;;2.13;;
13927;SDS011;7036;50.834;4.718;2023-05-10T13:31:52;10.75;;;1.90;;
13927;SDS011;7036;50.834;4.718;2023-05-10T13:34:19;9.13;;;1.90;;
13927;SDS011;7036;50.834;4.718;2023-05-10T13:36:46;6.25;;;2.30;;
13927;SDS011;7036;50.834;4.718;2023-05-10T13:39:14;5.68;;;2.22;;
13927;SDS011;7036;50.834;4.718;2023-05-10T13:41:41;3.25;;;1.55;;
13927;SDS011;7036;50.834;4.718;2023-05-10T13:44:11;7.35;;;2.08;;
13927;SDS011;7036;50.834;4.718;2023-05-10T13:46:37;7.07;;;1.80;;
13927;SDS011;7036;50.834;4.718;2023-05-10T13:49:05;5.93;;;1.80;;
13927;SDS011;7036;50.834;4.718;2023-05-10T13:51:33;4.97;;;1.60;;
13927;SDS011;7036;50.834;4.718;2023-05-10T13:54:02;9.00;;;1.75;;
13927;SDS011;7036;50.834;4.718;2023-05-10T13:56:29;5.20;;;1.77;;
13927;SDS011;7036;50.834;4.718;2023-05-10T13:58:57;8.13;;;1.75;;
13927;SDS011;7036;50.834;4.718;2023-05-10T14:01:26;8.48;;;1.50;;
13927;SDS011;7036;50.834;4.718;2023-05-10T14:03:52;12.70;;;1.60;;
13927;SDS011;7036;50.834;4.718;2023-05-10T14:06:20;8.70;;;2.42;;
13927;SDS011;7036;50.834;4.718;2023-05-10T14:08:48;7.90;;;2.20;;
13927;SDS011;7036;50.834;4.718;2023-05-10T14:11:16;8.32;;;2.55;;
13927;SDS011;7036;50.834;4.718;2023-05-10T14:13:43;9.63;;;2.42;;
13927;SDS011;7036;50.834;4.718;2023-05-10T14:16:11;13.57;;;2.50;;
13927;SDS011;7036;50.834;4.718;2023-05-10T14:18:38;14.50;;;2.65;;
13927;SDS011;7036;50.834;4.718;2023-05-10T14:21:05;12.60;;;2.53;;
13927;SDS011;7036;50.834;4.718;2023-05-10T14:23:32;22.23;;;2.15;;
13927;SDS011;7036;50.834;4.718;2023-05-10T14:26:00;9.90;;;2.15;;
13927;SDS011;7036;50.834;4.718;2023-05-10T14:28:28;7.55;;;2.00;;
13927;SDS011;7036;50.834;4.718;2023-05-10T14:30:56;10.15;;;2.45;;
13927;SDS011;7036;50.834;4.718;2023-05-10T14:33:24;8.18;;;1.88;;
13927;SDS011;7036;50.834;4.718;2023-05-10T14:35:51;9.88;;;2.50;;
13927;SDS011;7036;50.834;4.718;2023-05-10T14:38:19;8.98;;;2.38;;
13927;SDS011;7036;50.834;4.718;2023-05-10T14:40:47;4.10;;;1.73;;
13927;SDS011;7036;50.834;4.718;2023-05-10T14:43:17;13.20;;;2.10;;
13927;SDS011;7036;50.834;4.718;2023-05-10T14:45:44;12.30;;;2.50;;
13927;SDS011;7036;50.834;4.718;2023-05-10T14:48:12;8.40;;;2.13;;
13927;SDS011;7036;50.834;4.718;2023-05-10T14:50:39;12.57;;;1.80;;
13927;SDS011;7036;50.834;4.718;2023-05-10T14:53:06;16.17;;;2.38;;
13927;SDS011;7036;50.834;4.718;2023-05-10T14:55:33;7.82;;;1.75;;
13927;SDS011;7036;50.834;4.718;2023-05-10T14:58:04;4.63;;;2.20;;
13927;SDS011;7036;50.834;4.718;2023-05-10T15:00:30;9.47;;;2.30;;
13927;SDS011;7036;50.834;4.718;2023-05-10T15:02:58;16.23;;;2.40;;
13927;SDS011;7036;50.834;4.718;2023-05-10T15:05:25;5.95;;;2.33;;
13927;SDS011;7036;50.834;4.718;2023-05-10T15:07:52;7.38;;;2.35;;
13927;SDS011;7036;50.834;4.718;2023-05-10T15:10:20;5.60;;;3.05;;
13927;SDS011;7036;50.834;4.718;2023-05-10T15:12:48;8.93;;;3.00;;
13927;SDS011;7036;50.834;4.718;2023-05-10T15:15:17;6.80;;;2.20;;
13927;SDS011;7036;50.834;4.718;2023-05-10T15:17:44;3.90;;;2.30;;
13927;SDS011;7036;50.834;4.718;2023-05-10T15:20:12;4.53;;;2.30;;
13927;SDS011;7036;50.834;4.718;2023-05-10T15:22:40;10.90;;;2.53;;
13927;SDS011;7036;50.834;4.718;2023-05-10T15:25:06;5.90;;;2.38;;
13927;SDS011;7036;50.834;4.718;2023-05-10T15:27:34;6.95;;;1.88;;
13927;SDS011;7036;50.834;4.718;2023-05-10T15:30:01;7.17;;;2.43;;
13927;SDS011;7036;50.834;4.718;2023-05-10T15:32:28;6.28;;;2.20;;
13927;SDS011;7036;50.834;4.718;2023-05-10T15:34:55;4.85;;;2.25;;
13927;SDS011;7036;50.834;4.718;2023-05-10T15:37:22;13.88;;;3.08;;